sensor_id;sensor_type;location;lat;lon;timestamp;temperature;humidity
68764;DHT22;55754;52.038;5.566;2022-12-11T00:00:06;2.10;99.90
68764;DHT22;55754;52.038;5.566;2022-12-11T00:02:32;2.10;99.90
68764;DHT22;55754;52.038;5.566;2022-12-11T00:04:58;2.10;99.90
68764;DHT22;55754;52.038;5.566;2022-12-11T00:07:23;2.10;99.90
68764;DHT22;55754;52.038;5.566;2022-12-11T00:09:49;2.20;99.90
68764;DHT22;55754;52.038;5.566;2022-12-11T00:12:18;2.10;99.90
68764;DHT22;55754;52.038;5.566;2022-12-11T00:14:43;2.10;99.90
68764;DHT22;55754;52.038;5.566;2022-12-11T00:17:11;2.20;99.90
68764;DHT22;55754;52.038;5.566;2022-12-11T00:19:37;2.20;99.90
68764;DHT22;55754;52.038;5.566;2022-12-11T00:22:02;2.20;99.90
68764;DHT22;55754;52.038;5.566;2022-12-11T00:24:28;2.20;99.90
68764;DHT22;55754;52.038;5.566;2022-12-11T00:26:53;2.20;99.90
68764;DHT22;55754;52.038;5.566;2022-12-11T00:29:19;2.20;99.90
68764;DHT22;55754;52.038;5.566;2022-12-11T00:31:44;2.20;99.90
68764;DHT22;55754;52.038;5.566;2022-12-11T00:34:10;2.20;99.90
68764;DHT22;55754;52.038;5.566;2022-12-11T00:36:39;2.20;99.90
68764;DHT22;55754;52.038;5.566;2022-12-11T00:39:05;2.20;99.90
68764;DHT22;55754;52.038;5.566;2022-12-11T00:41:30;2.20;99.90
68764;DHT22;55754;52.038;5.566;2022-12-11T00:43:56;2.20;99.80
68764;DHT22;55754;52.038;5.566;2022-12-11T00:46:22;2.30;99.90
68764;DHT22;55754;52.038;5.566;2022-12-11T00:48:47;2.30;99.90
68764;DHT22;55754;52.038;5.566;2022-12-11T00:51:15;2.30;99.90
68764;DHT22;55754;52.038;5.566;2022-12-11T00:53:40;2.20;99.90
68764;DHT22;55754;52.038;5.566;2022-12-11T00:56:14;2.10;99.90
68764;DHT22;55754;52.038;5.566;2022-12-11T00:58:41;2.30;99.90
68764;DHT22;55754;52.038;5.566;2022-12-11T01:01:12;2.30;99.90
68764;DHT22;55754;52.038;5.566;2022-12-11T01:03:38;2.30;99.90
68764;DHT22;55754;52.038;5.566;2022-12-11T01:06:05;2.30;99.90
68764;DHT22;55754;52.038;5.566;2022-12-11T01:08:30;2.30;99.90
68764;DHT22;55754;52.038;5.566;2022-12-11T01:11:08;2.30;99.90
68764;DHT22;55754;52.038;5.566;2022-12-11T01:13:33;2.30;99.90
68764;DHT22;55754;52.038;5.566;2022-12-11T01:16:04;2.30;99.90
68764;DHT22;55754;52.038;5.566;2022-12-11T01:18:30;2.30;99.90
68764;DHT22;55754;52.038;5.566;2022-12-11T01:20:56;2.30;99.90
68764;DHT22;55754;52.038;5.566;2022-12-11T01:23:21;2.30;99.90
68764;DHT22;55754;52.038;5.566;2022-12-11T01:25:47;2.30;99.90
68764;DHT22;55754;52.038;5.566;2022-12-11T01:28:12;2.30;99.90
68764;DHT22;55754;52.038;5.566;2022-12-11T01:30:40;2.30;99.90
68764;DHT22;55754;52.038;5.566;2022-12-11T01:33:07;2.20;99.90
68764;DHT22;55754;52.038;5.566;2022-12-11T01:35:32;2.20;99.90
68764;DHT22;55754;52.038;5.566;2022-12-11T01:38:01;2.20;99.90
68764;DHT22;55754;52.038;5.566;2022-12-11T01:40:30;2.20;99.90
68764;DHT22;55754;52.038;5.566;2022-12-11T01:42:58;2.20;99.90
68764;DHT22;55754;52.038;5.566;2022-12-11T01:45:35;2.20;99.90
68764;DHT22;55754;52.038;5.566;2022-12-11T01:48:08;2.20;99.90
68764;DHT22;55754;52.038;5.566;2022-12-11T01:50:51;2.20;99.90
68764;DHT22;55754;52.038;5.566;2022-12-11T01:53:30;2.20;99.90
68764;DHT22;55754;52.038;5.566;2022-12-11T01:55:58;2.20;99.90
68764;DHT22;55754;52.038;5.566;2022-12-11T01:58:28;2.20;99.90
68764;DHT22;55754;52.038;5.566;2022-12-11T02:00:56;2.20;99.90
68764;DHT22;55754;52.038;5.566;2022-12-11T02:03:22;2.20;99.90
68764;DHT22;55754;52.038;5.566;2022-12-11T02:05:49;2.20;99.90
68764;DHT22;55754;52.038;5.566;2022-12-11T02:08:15;2.20;99.90
68764;DHT22;55754;52.038;5.566;2022-12-11T02:10:47;2.20;99.90
68764;DHT22;55754;52.038;5.566;2022-12-11T02:13:20;2.30;99.90
68764;DHT22;55754;52.038;5.566;2022-12-11T02:16:02;2.20;99.90
68764;DHT22;55754;52.038;5.566;2022-12-11T02:18:41;2.30;99.90
68764;DHT22;55754;52.038;5.566;2022-12-11T02:21:33;2.20;99.90
68764;DHT22;55754;52.038;5.566;2022-12-11T02:24:06;2.20;99.90
68764;DHT22;55754;52.038;5.566;2022-12-11T02:30:14;2.30;99.90
68764;DHT22;55754;52.038;5.566;2022-12-11T02:32:54;2.30;99.90
68764;DHT22;55754;52.038;5.566;2022-12-11T02:37:58;2.30;99.90
68764;DHT22;55754;52.038;5.566;2022-12-11T02:40:29;2.30;99.90
68764;DHT22;55754;52.038;5.566;2022-12-11T02:42:57;2.30;99.90
68764;DHT22;55754;52.038;5.566;2022-12-11T02:45:25;2.30;99.90
68764;DHT22;55754;52.038;5.566;2022-12-11T02:47:51;2.30;99.90
68764;DHT22;55754;52.038;5.566;2022-12-11T02:50:20;2.40;99.90
68764;DHT22;55754;52.038;5.566;2022-12-11T02:52:48;2.40;99.90
68764;DHT22;55754;52.038;5.566;2022-12-11T02:55:15;2.40;99.90
68764;DHT22;55754;52.038;5.566;2022-12-11T03:00:09;2.40;99.90
68764;DHT22;55754;52.038;5.566;2022-12-11T03:02:36;2.40;99.90
68764;DHT22;55754;52.038;5.566;2022-12-11T03:05:02;2.50;99.90
68764;DHT22;55754;52.038;5.566;2022-12-11T03:07:32;2.40;99.90
68764;DHT22;55754;52.038;5.566;2022-12-11T03:09:58;2.40;99.90
68764;DHT22;55754;52.038;5.566;2022-12-11T03:12:28;2.40;99.90
68764;DHT22;55754;52.038;5.566;2022-12-11T03:14:57;2.40;99.90
68764;DHT22;55754;52.038;5.566;2022-12-11T03:18:16;2.40;99.90
68764;DHT22;55754;52.038;5.566;2022-12-11T03:20:21;2.40;99.90
68764;DHT22;55754;52.038;5.566;2022-12-11T03:25:57;2.50;99.90
68764;DHT22;55754;52.038;5.566;2022-12-11T03:28:33;2.50;99.90
68764;DHT22;55754;52.038;5.566;2022-12-11T03:31:06;2.50;99.90
68764;DHT22;55754;52.038;5.566;2022-12-11T03:33:53;2.50;99.90
68764;DHT22;55754;52.038;5.566;2022-12-11T03:36:24;2.50;99.90
68764;DHT22;55754;52.038;5.566;2022-12-11T03:38:58;2.50;99.90
68764;DHT22;55754;52.038;5.566;2022-12-11T03:41:26;2.50;99.90
68764;DHT22;55754;52.038;5.566;2022-12-11T03:43:55;2.50;99.90
68764;DHT22;55754;52.038;5.566;2022-12-11T03:46:24;2.50;99.90
68764;DHT22;55754;52.038;5.566;2022-12-11T03:48:52;2.50;99.80
68764;DHT22;55754;52.038;5.566;2022-12-11T03:51:20;2.50;99.90
68764;DHT22;55754;52.038;5.566;2022-12-11T03:53:48;2.50;99.90
68764;DHT22;55754;52.038;5.566;2022-12-11T03:56:14;2.50;99.60
68764;DHT22;55754;52.038;5.566;2022-12-11T03:58:41;2.50;99.70
68764;DHT22;55754;52.038;5.566;2022-12-11T04:01:10;2.50;99.80
68764;DHT22;55754;52.038;5.566;2022-12-11T04:03:36;2.50;99.80
68764;DHT22;55754;52.038;5.566;2022-12-11T04:06:02;2.50;99.70
68764;DHT22;55754;52.038;5.566;2022-12-11T04:08:28;2.50;99.80
68764;DHT22;55754;52.038;5.566;2022-12-11T04:10:53;2.50;99.70
68764;DHT22;55754;52.038;5.566;2022-12-11T04:13:38;2.50;99.90
68764;DHT22;55754;52.038;5.566;2022-12-11T04:16:04;2.50;99.80
68764;DHT22;55754;52.038;5.566;2022-12-11T04:18:30;2.50;99.80
68764;DHT22;55754;52.038;5.566;2022-12-11T04:21:14;2.50;99.90
68764;DHT22;55754;52.038;5.566;2022-12-11T04:24:02;2.50;99.70
68764;DHT22;55754;52.038;5.566;2022-12-11T04:26:40;2.50;99.70
68764;DHT22;55754;52.038;5.566;2022-12-11T04:29:06;2.50;99.80
68764;DHT22;55754;52.038;5.566;2022-12-11T04:31:31;2.50;99.80
68764;DHT22;55754;52.038;5.566;2022-12-11T04:33:57;2.50;99.50
68764;DHT22;55754;52.038;5.566;2022-12-11T04:36:23;2.50;99.40
68764;DHT22;55754;52.038;5.566;2022-12-11T04:38:48;2.50;99.50
68764;DHT22;55754;52.038;5.566;2022-12-11T04:41:15;2.50;99.50
68764;DHT22;55754;52.038;5.566;2022-12-11T04:43:41;2.50;99.30
68764;DHT22;55754;52.038;5.566;2022-12-11T04:46:13;2.50;99.40
68764;DHT22;55754;52.038;5.566;2022-12-11T04:48:39;2.50;99.20
68764;DHT22;55754;52.038;5.566;2022-12-11T04:51:12;2.60;99.20
68764;DHT22;55754;52.038;5.566;2022-12-11T04:53:37;2.60;99.50
68764;DHT22;55754;52.038;5.566;2022-12-11T04:56:08;2.50;99.10
68764;DHT22;55754;52.038;5.566;2022-12-11T04:58:34;2.50;99.20
68764;DHT22;55754;52.038;5.566;2022-12-11T05:04:04;2.50;99.00
68764;DHT22;55754;52.038;5.566;2022-12-11T05:06:29;2.50;99.10
68764;DHT22;55754;52.038;5.566;2022-12-11T05:08:55;2.50;99.00
68764;DHT22;55754;52.038;5.566;2022-12-11T05:11:20;2.50;99.40
68764;DHT22;55754;52.038;5.566;2022-12-11T05:13:46;2.50;99.00
68764;DHT22;55754;52.038;5.566;2022-12-11T05:16:15;2.50;98.80
68764;DHT22;55754;52.038;5.566;2022-12-11T05:18:41;2.50;98.80
68764;DHT22;55754;52.038;5.566;2022-12-11T05:21:10;2.50;98.70
68764;DHT22;55754;52.038;5.566;2022-12-11T05:23:36;2.50;98.30
68764;DHT22;55754;52.038;5.566;2022-12-11T05:26:06;2.50;98.50
68764;DHT22;55754;52.038;5.566;2022-12-11T05:28:34;2.50;98.50
68764;DHT22;55754;52.038;5.566;2022-12-11T05:31:05;2.50;98.50
68764;DHT22;55754;52.038;5.566;2022-12-11T05:33:32;2.50;98.70
68764;DHT22;55754;52.038;5.566;2022-12-11T05:35:58;2.50;98.50
68764;DHT22;55754;52.038;5.566;2022-12-11T05:38:25;2.50;98.80
68764;DHT22;55754;52.038;5.566;2022-12-11T05:40:58;2.50;98.60
68764;DHT22;55754;52.038;5.566;2022-12-11T05:43:25;2.50;98.80
68764;DHT22;55754;52.038;5.566;2022-12-11T05:45:51;2.50;98.50
68764;DHT22;55754;52.038;5.566;2022-12-11T05:48:17;2.50;98.90
68764;DHT22;55754;52.038;5.566;2022-12-11T05:50:43;2.50;98.70
68764;DHT22;55754;52.038;5.566;2022-12-11T05:53:08;2.50;98.80
68764;DHT22;55754;52.038;5.566;2022-12-11T05:55:34;2.50;98.60
68764;DHT22;55754;52.038;5.566;2022-12-11T05:58:02;2.50;98.60
68764;DHT22;55754;52.038;5.566;2022-12-11T06:00:28;2.50;98.50
68764;DHT22;55754;52.038;5.566;2022-12-11T06:02:53;2.50;98.80
68764;DHT22;55754;52.038;5.566;2022-12-11T06:05:19;2.50;98.80
68764;DHT22;55754;52.038;5.566;2022-12-11T06:07:44;2.50;99.00
68764;DHT22;55754;52.038;5.566;2022-12-11T06:10:10;2.50;99.00
68764;DHT22;55754;52.038;5.566;2022-12-11T06:12:35;2.50;98.80
68764;DHT22;55754;52.038;5.566;2022-12-11T06:15:01;2.50;98.60
68764;DHT22;55754;52.038;5.566;2022-12-11T06:17:26;2.50;98.00
68764;DHT22;55754;52.038;5.566;2022-12-11T06:19:52;2.60;97.60
68764;DHT22;55754;52.038;5.566;2022-12-11T06:22:17;2.60;97.30
68764;DHT22;55754;52.038;5.566;2022-12-11T06:24:43;2.60;97.30
68764;DHT22;55754;52.038;5.566;2022-12-11T06:27:09;2.50;97.30
68764;DHT22;55754;52.038;5.566;2022-12-11T06:29:34;2.60;97.30
68764;DHT22;55754;52.038;5.566;2022-12-11T06:32:00;2.50;97.10
68764;DHT22;55754;52.038;5.566;2022-12-11T06:34:25;2.60;97.10
68764;DHT22;55754;52.038;5.566;2022-12-11T06:36:51;2.50;96.60
68764;DHT22;55754;52.038;5.566;2022-12-11T06:39:16;2.50;96.90
68764;DHT22;55754;52.038;5.566;2022-12-11T06:41:42;2.50;96.60
68764;DHT22;55754;52.038;5.566;2022-12-11T06:44:10;2.50;96.80
68764;DHT22;55754;52.038;5.566;2022-12-11T06:46:36;2.40;96.80
68764;DHT22;55754;52.038;5.566;2022-12-11T06:49:02;2.50;97.00
68764;DHT22;55754;52.038;5.566;2022-12-11T06:51:27;2.40;96.80
68764;DHT22;55754;52.038;5.566;2022-12-11T06:53:55;2.40;96.90
68764;DHT22;55754;52.038;5.566;2022-12-11T06:56:22;2.50;96.80
68764;DHT22;55754;52.038;5.566;2022-12-11T06:58:48;3.70;97.20
68764;DHT22;55754;52.038;5.566;2022-12-11T07:01:20;2.50;97.00
68764;DHT22;55754;52.038;5.566;2022-12-11T07:03:46;2.50;97.00
68764;DHT22;55754;52.038;5.566;2022-12-11T07:06:11;2.50;97.10
68764;DHT22;55754;52.038;5.566;2022-12-11T07:08:37;2.50;97.00
68764;DHT22;55754;52.038;5.566;2022-12-11T07:11:05;2.50;96.70
68764;DHT22;55754;52.038;5.566;2022-12-11T07:13:31;2.50;96.70
68764;DHT22;55754;52.038;5.566;2022-12-11T07:15:57;2.50;96.80
68764;DHT22;55754;52.038;5.566;2022-12-11T07:18:24;2.50;96.90
68764;DHT22;55754;52.038;5.566;2022-12-11T07:20:50;2.60;96.80
68764;DHT22;55754;52.038;5.566;2022-12-11T07:23:16;2.50;96.70
68764;DHT22;55754;52.038;5.566;2022-12-11T07:25:41;2.50;96.70
68764;DHT22;55754;52.038;5.566;2022-12-11T07:28:07;2.50;96.40
68764;DHT22;55754;52.038;5.566;2022-12-11T07:30:32;2.50;96.70
68764;DHT22;55754;52.038;5.566;2022-12-11T07:32:58;2.50;96.30
68764;DHT22;55754;52.038;5.566;2022-12-11T07:35:23;2.50;96.20
68764;DHT22;55754;52.038;5.566;2022-12-11T07:37:49;2.50;95.90
68764;DHT22;55754;52.038;5.566;2022-12-11T07:40:18;2.60;95.90
68764;DHT22;55754;52.038;5.566;2022-12-11T07:42:43;2.50;96.10
68764;DHT22;55754;52.038;5.566;2022-12-11T07:45:09;2.50;96.00
68764;DHT22;55754;52.038;5.566;2022-12-11T07:47:35;2.50;96.10
68764;DHT22;55754;52.038;5.566;2022-12-11T07:50:00;2.50;96.10
68764;DHT22;55754;52.038;5.566;2022-12-11T07:52:26;2.50;96.00
68764;DHT22;55754;52.038;5.566;2022-12-11T07:54:51;2.50;95.80
68764;DHT22;55754;52.038;5.566;2022-12-11T07:57:17;2.50;96.00
68764;DHT22;55754;52.038;5.566;2022-12-11T07:59:43;2.40;96.10
68764;DHT22;55754;52.038;5.566;2022-12-11T08:02:09;2.40;96.20
68764;DHT22;55754;52.038;5.566;2022-12-11T08:04:36;2.40;96.30
68764;DHT22;55754;52.038;5.566;2022-12-11T08:07:01;2.40;96.10
68764;DHT22;55754;52.038;5.566;2022-12-11T08:09:27;2.40;96.00
68764;DHT22;55754;52.038;5.566;2022-12-11T08:11:52;2.40;96.20
68764;DHT22;55754;52.038;5.566;2022-12-11T08:14:19;2.50;96.00
68764;DHT22;55754;52.038;5.566;2022-12-11T08:16:44;2.50;96.10
68764;DHT22;55754;52.038;5.566;2022-12-11T08:19:21;2.50;96.10
68764;DHT22;55754;52.038;5.566;2022-12-11T08:21:46;2.50;95.90
68764;DHT22;55754;52.038;5.566;2022-12-11T08:24:12;2.50;96.00
68764;DHT22;55754;52.038;5.566;2022-12-11T08:26:40;2.50;95.60
68764;DHT22;55754;52.038;5.566;2022-12-11T08:29:06;2.50;95.60
68764;DHT22;55754;52.038;5.566;2022-12-11T08:31:31;2.50;95.60
68764;DHT22;55754;52.038;5.566;2022-12-11T08:34:00;2.40;95.60
68764;DHT22;55754;52.038;5.566;2022-12-11T08:36:26;2.40;96.00
68764;DHT22;55754;52.038;5.566;2022-12-11T08:38:53;2.40;96.00
68764;DHT22;55754;52.038;5.566;2022-12-11T08:41:23;2.50;95.80
68764;DHT22;55754;52.038;5.566;2022-12-11T08:43:48;2.40;96.00
68764;DHT22;55754;52.038;5.566;2022-12-11T08:46:17;2.40;95.90
68764;DHT22;55754;52.038;5.566;2022-12-11T08:48:43;2.40;95.90
68764;DHT22;55754;52.038;5.566;2022-12-11T08:51:12;2.30;95.80
68764;DHT22;55754;52.038;5.566;2022-12-11T08:53:38;2.40;95.80
68764;DHT22;55754;52.038;5.566;2022-12-11T08:56:06;2.40;95.80
68764;DHT22;55754;52.038;5.566;2022-12-11T08:58:32;2.40;95.90
68764;DHT22;55754;52.038;5.566;2022-12-11T09:00:58;2.40;95.90
68764;DHT22;55754;52.038;5.566;2022-12-11T09:03:23;2.40;95.80
68764;DHT22;55754;52.038;5.566;2022-12-11T09:05:49;2.40;96.40
68764;DHT22;55754;52.038;5.566;2022-12-11T09:08:15;2.40;95.80
68764;DHT22;55754;52.038;5.566;2022-12-11T09:10:41;2.50;95.60
68764;DHT22;55754;52.038;5.566;2022-12-11T09:13:06;2.50;95.40
68764;DHT22;55754;52.038;5.566;2022-12-11T09:15:32;2.50;95.60
68764;DHT22;55754;52.038;5.566;2022-12-11T09:17:57;2.50;95.70
68764;DHT22;55754;52.038;5.566;2022-12-11T09:20:25;2.60;95.90
68764;DHT22;55754;52.038;5.566;2022-12-11T09:22:51;2.60;95.90
68764;DHT22;55754;52.038;5.566;2022-12-11T09:25:16;2.50;95.60
68764;DHT22;55754;52.038;5.566;2022-12-11T09:27:42;2.60;95.50
68764;DHT22;55754;52.038;5.566;2022-12-11T09:30:08;2.60;95.50
68764;DHT22;55754;52.038;5.566;2022-12-11T09:32:33;2.60;95.40
68764;DHT22;55754;52.038;5.566;2022-12-11T09:35:02;2.60;95.30
68764;DHT22;55754;52.038;5.566;2022-12-11T09:37:27;3.70;95.70
68764;DHT22;55754;52.038;5.566;2022-12-11T09:39:53;2.70;95.40
68764;DHT22;55754;52.038;5.566;2022-12-11T09:42:46;2.70;95.10
68764;DHT22;55754;52.038;5.566;2022-12-11T09:45:15;2.70;95.10
68764;DHT22;55754;52.038;5.566;2022-12-11T09:47:46;2.70;95.20
68764;DHT22;55754;52.038;5.566;2022-12-11T09:50:27;2.80;95.20
68764;DHT22;55754;52.038;5.566;2022-12-11T09:55:57;2.70;95.10
68764;DHT22;55754;52.038;5.566;2022-12-11T09:58:33;2.80;95.10
68764;DHT22;55754;52.038;5.566;2022-12-11T10:01:16;2.80;95.50
68764;DHT22;55754;52.038;5.566;2022-12-11T10:06:30;2.90;95.00
68764;DHT22;55754;52.038;5.566;2022-12-11T10:09:21;2.90;94.60
68764;DHT22;55754;52.038;5.566;2022-12-11T10:14:31;2.90;95.00
68764;DHT22;55754;52.038;5.566;2022-12-11T10:19:39;2.90;94.80
68764;DHT22;55754;52.038;5.566;2022-12-11T10:22:20;2.90;95.10
68764;DHT22;55754;52.038;5.566;2022-12-11T10:27:28;3.00;94.90
68764;DHT22;55754;52.038;5.566;2022-12-11T10:32:46;3.00;94.80
68764;DHT22;55754;52.038;5.566;2022-12-11T10:35:30;3.00;95.00
68764;DHT22;55754;52.038;5.566;2022-12-11T10:38:15;3.00;94.90
68764;DHT22;55754;52.038;5.566;2022-12-11T10:40:44;3.00;94.80
68764;DHT22;55754;52.038;5.566;2022-12-11T10:43:10;3.00;95.00
68764;DHT22;55754;52.038;5.566;2022-12-11T10:45:36;3.10;94.90
68764;DHT22;55754;52.038;5.566;2022-12-11T10:48:10;3.10;94.90
68764;DHT22;55754;52.038;5.566;2022-12-11T10:50:37;3.10;94.90
68764;DHT22;55754;52.038;5.566;2022-12-11T10:53:04;3.10;95.10
68764;DHT22;55754;52.038;5.566;2022-12-11T10:55:48;3.10;95.00
68764;DHT22;55754;52.038;5.566;2022-12-11T10:58:20;3.10;95.40
68764;DHT22;55754;52.038;5.566;2022-12-11T11:00:59;3.20;95.20
68764;DHT22;55754;52.038;5.566;2022-12-11T11:03:27;3.20;95.10
68764;DHT22;55754;52.038;5.566;2022-12-11T11:06:17;3.20;94.70
68764;DHT22;55754;52.038;5.566;2022-12-11T11:08:55;3.20;94.60
68764;DHT22;55754;52.038;5.566;2022-12-11T11:13:48;3.20;94.70
68764;DHT22;55754;52.038;5.566;2022-12-11T11:16:16;3.30;94.70
68764;DHT22;55754;52.038;5.566;2022-12-11T11:18:50;3.30;94.50
68764;DHT22;55754;52.038;5.566;2022-12-11T11:21:18;3.30;94.40
68764;DHT22;55754;52.038;5.566;2022-12-11T11:23:44;3.30;94.40
68764;DHT22;55754;52.038;5.566;2022-12-11T11:26:10;3.30;94.40
68764;DHT22;55754;52.038;5.566;2022-12-11T11:28:39;3.30;94.30
68764;DHT22;55754;52.038;5.566;2022-12-11T11:31:09;3.30;94.30
68764;DHT22;55754;52.038;5.566;2022-12-11T11:33:36;3.30;94.40
68764;DHT22;55754;52.038;5.566;2022-12-11T11:36:20;3.30;94.30
68764;DHT22;55754;52.038;5.566;2022-12-11T11:42:17;3.30;94.20
68764;DHT22;55754;52.038;5.566;2022-12-11T11:45:02;3.20;94.10
68764;DHT22;55754;52.038;5.566;2022-12-11T11:47:35;3.20;94.30
68764;DHT22;55754;52.038;5.566;2022-12-11T11:50:24;3.20;94.30
68764;DHT22;55754;52.038;5.566;2022-12-11T11:53:01;3.30;94.40
68764;DHT22;55754;52.038;5.566;2022-12-11T11:58:43;3.30;94.30
68764;DHT22;55754;52.038;5.566;2022-12-11T12:01:19;3.30;94.40
68764;DHT22;55754;52.038;5.566;2022-12-11T12:03:46;3.30;94.40
68764;DHT22;55754;52.038;5.566;2022-12-11T12:11:37;3.30;94.20
68764;DHT22;55754;52.038;5.566;2022-12-11T12:14:07;3.30;94.20
68764;DHT22;55754;52.038;5.566;2022-12-11T12:16:44;3.30;94.10
68764;DHT22;55754;52.038;5.566;2022-12-11T12:22:36;3.30;94.20
68764;DHT22;55754;52.038;5.566;2022-12-11T12:28:01;3.40;94.10
68764;DHT22;55754;52.038;5.566;2022-12-11T12:30:41;3.30;94.30
68764;DHT22;55754;52.038;5.566;2022-12-11T12:33:30;3.30;94.10
68764;DHT22;55754;52.038;5.566;2022-12-11T12:36:28;3.40;94.10
68764;DHT22;55754;52.038;5.566;2022-12-11T12:41:56;3.30;93.90
68764;DHT22;55754;52.038;5.566;2022-12-11T12:44:24;3.30;94.00
68764;DHT22;55754;52.038;5.566;2022-12-11T12:46:58;3.30;94.10
68764;DHT22;55754;52.038;5.566;2022-12-11T12:49:48;3.30;94.00
68764;DHT22;55754;52.038;5.566;2022-12-11T12:52:17;3.30;93.90
68764;DHT22;55754;52.038;5.566;2022-12-11T12:54:45;3.20;94.10
68764;DHT22;55754;52.038;5.566;2022-12-11T12:57:36;3.30;94.10
68764;DHT22;55754;52.038;5.566;2022-12-11T13:00:04;3.30;94.10
68764;DHT22;55754;52.038;5.566;2022-12-11T13:02:30;3.30;94.10
68764;DHT22;55754;52.038;5.566;2022-12-11T13:05:14;3.30;94.20
68764;DHT22;55754;52.038;5.566;2022-12-11T13:07:49;3.30;94.10
68764;DHT22;55754;52.038;5.566;2022-12-11T13:10:36;3.30;94.00
68764;DHT22;55754;52.038;5.566;2022-12-11T13:13:03;3.30;94.10
68764;DHT22;55754;52.038;5.566;2022-12-11T13:15:38;3.30;94.00
68764;DHT22;55754;52.038;5.566;2022-12-11T13:18:36;3.20;94.00
68764;DHT22;55754;52.038;5.566;2022-12-11T13:21:25;3.20;93.90
68764;DHT22;55754;52.038;5.566;2022-12-11T13:23:50;3.50;94.10
68764;DHT22;55754;52.038;5.566;2022-12-11T13:26:32;3.30;94.20
68764;DHT22;55754;52.038;5.566;2022-12-11T13:28:58;3.30;94.10
68764;DHT22;55754;52.038;5.566;2022-12-11T13:31:25;3.20;94.20
68764;DHT22;55754;52.038;5.566;2022-12-11T13:33:54;3.20;94.30
68764;DHT22;55754;52.038;5.566;2022-12-11T13:36:33;3.20;94.50
68764;DHT22;55754;52.038;5.566;2022-12-11T13:39:21;3.20;94.40
68764;DHT22;55754;52.038;5.566;2022-12-11T13:41:51;3.20;94.40
68764;DHT22;55754;52.038;5.566;2022-12-11T13:44:27;3.20;94.40
68764;DHT22;55754;52.038;5.566;2022-12-11T13:46:56;3.20;94.30
68764;DHT22;55754;52.038;5.566;2022-12-11T13:49:43;3.20;94.40
68764;DHT22;55754;52.038;5.566;2022-12-11T13:52:18;3.30;94.30
68764;DHT22;55754;52.038;5.566;2022-12-11T13:54:49;3.30;94.40
68764;DHT22;55754;52.038;5.566;2022-12-11T13:57:21;3.20;94.20
68764;DHT22;55754;52.038;5.566;2022-12-11T13:59:50;3.20;94.20
68764;DHT22;55754;52.038;5.566;2022-12-11T14:05:03;3.20;94.20
68764;DHT22;55754;52.038;5.566;2022-12-11T14:07:33;3.30;94.10
68764;DHT22;55754;52.038;5.566;2022-12-11T14:10:03;3.30;94.10
68764;DHT22;55754;52.038;5.566;2022-12-11T14:12:30;3.30;94.10
68764;DHT22;55754;52.038;5.566;2022-12-11T14:14:58;3.40;94.20
68764;DHT22;55754;52.038;5.566;2022-12-11T14:17:34;3.20;94.20
68764;DHT22;55754;52.038;5.566;2022-12-11T14:20:02;4.60;94.50
68764;DHT22;55754;52.038;5.566;2022-12-11T14:22:31;3.30;94.30
68764;DHT22;55754;52.038;5.566;2022-12-11T14:25:00;3.20;94.20
68764;DHT22;55754;52.038;5.566;2022-12-11T14:27:28;3.20;94.30
68764;DHT22;55754;52.038;5.566;2022-12-11T14:29:54;3.20;94.40
68764;DHT22;55754;52.038;5.566;2022-12-11T14:32:36;3.20;94.20
68764;DHT22;55754;52.038;5.566;2022-12-11T14:35:05;3.30;94.20
68764;DHT22;55754;52.038;5.566;2022-12-11T14:37:33;3.20;94.20
68764;DHT22;55754;52.038;5.566;2022-12-11T14:40:09;3.30;94.30
68764;DHT22;55754;52.038;5.566;2022-12-11T14:42:47;3.70;94.20
68764;DHT22;55754;52.038;5.566;2022-12-11T14:45:34;3.30;94.30
68764;DHT22;55754;52.038;5.566;2022-12-11T14:48:04;3.30;94.10
68764;DHT22;55754;52.038;5.566;2022-12-11T14:50:44;3.20;94.20
68764;DHT22;55754;52.038;5.566;2022-12-11T14:53:39;3.20;94.20
68764;DHT22;55754;52.038;5.566;2022-12-11T14:56:12;3.10;94.40
68764;DHT22;55754;52.038;5.566;2022-12-11T14:58:44;3.20;94.40
68764;DHT22;55754;52.038;5.566;2022-12-11T15:01:33;3.10;94.40
68764;DHT22;55754;52.038;5.566;2022-12-11T15:04:06;3.20;94.60
68764;DHT22;55754;52.038;5.566;2022-12-11T15:06:34;3.10;94.30
68764;DHT22;55754;52.038;5.566;2022-12-11T15:12:13;3.20;94.10
68764;DHT22;55754;52.038;5.566;2022-12-11T15:14:58;3.20;94.30
68764;DHT22;55754;52.038;5.566;2022-12-11T15:17:25;3.20;94.30
68764;DHT22;55754;52.038;5.566;2022-12-11T15:19:55;3.20;94.40
68764;DHT22;55754;52.038;5.566;2022-12-11T15:22:22;3.10;94.40
68764;DHT22;55754;52.038;5.566;2022-12-11T15:24:51;3.10;94.40
68764;DHT22;55754;52.038;5.566;2022-12-11T15:27:36;3.20;94.40
68764;DHT22;55754;52.038;5.566;2022-12-11T15:36:01;3.30;94.20
68764;DHT22;55754;52.038;5.566;2022-12-11T15:38:38;3.20;94.10
68764;DHT22;55754;52.038;5.566;2022-12-11T15:41:12;3.20;94.00
68764;DHT22;55754;52.038;5.566;2022-12-11T15:43:39;3.20;94.10
68764;DHT22;55754;52.038;5.566;2022-12-11T15:46:05;3.20;94.00
68764;DHT22;55754;52.038;5.566;2022-12-11T15:48:31;3.10;94.20
68764;DHT22;55754;52.038;5.566;2022-12-11T15:50:57;3.20;94.30
68764;DHT22;55754;52.038;5.566;2022-12-11T15:53:23;3.10;94.20
68764;DHT22;55754;52.038;5.566;2022-12-11T15:55:49;3.10;94.10
68764;DHT22;55754;52.038;5.566;2022-12-11T15:58:18;3.10;94.00
68764;DHT22;55754;52.038;5.566;2022-12-11T16:00:45;3.10;94.10
68764;DHT22;55754;52.038;5.566;2022-12-11T16:03:12;3.10;94.00
68764;DHT22;55754;52.038;5.566;2022-12-11T16:05:38;3.10;94.10
68764;DHT22;55754;52.038;5.566;2022-12-11T16:08:04;2.10;93.90
68764;DHT22;55754;52.038;5.566;2022-12-11T16:10:30;3.10;94.10
68764;DHT22;55754;52.038;5.566;2022-12-11T16:12:55;3.00;94.20
68764;DHT22;55754;52.038;5.566;2022-12-11T16:15:25;3.00;94.30
68764;DHT22;55754;52.038;5.566;2022-12-11T16:18:02;3.00;94.30
68764;DHT22;55754;52.038;5.566;2022-12-11T16:20:28;3.00;94.30
68764;DHT22;55754;52.038;5.566;2022-12-11T16:22:55;3.00;94.20
68764;DHT22;55754;52.038;5.566;2022-12-11T16:25:21;3.00;94.20
68764;DHT22;55754;52.038;5.566;2022-12-11T16:27:46;3.00;94.10
68764;DHT22;55754;52.038;5.566;2022-12-11T16:30:15;3.00;94.20
68764;DHT22;55754;52.038;5.566;2022-12-11T16:32:42;2.90;94.10
68764;DHT22;55754;52.038;5.566;2022-12-11T16:35:08;3.00;94.10
68764;DHT22;55754;52.038;5.566;2022-12-11T16:37:33;3.00;94.20
68764;DHT22;55754;52.038;5.566;2022-12-11T16:39:59;3.00;94.30
68764;DHT22;55754;52.038;5.566;2022-12-11T16:42:24;3.00;94.40
68764;DHT22;55754;52.038;5.566;2022-12-11T16:44:50;3.00;94.40
68764;DHT22;55754;52.038;5.566;2022-12-11T16:47:15;3.00;94.20
68764;DHT22;55754;52.038;5.566;2022-12-11T16:49:41;3.00;94.20
68764;DHT22;55754;52.038;5.566;2022-12-11T16:52:10;3.00;94.20
68764;DHT22;55754;52.038;5.566;2022-12-11T16:54:35;3.00;94.30
68764;DHT22;55754;52.038;5.566;2022-12-11T16:57:01;3.00;94.20
68764;DHT22;55754;52.038;5.566;2022-12-11T16:59:26;3.00;94.30
68764;DHT22;55754;52.038;5.566;2022-12-11T17:01:52;3.00;94.20
68764;DHT22;55754;52.038;5.566;2022-12-11T17:04:18;3.10;94.20
68764;DHT22;55754;52.038;5.566;2022-12-11T17:06:43;3.00;94.20